Time;durP1;ratioP1;P1;durP2;ratioP2;P2;SDS_P1;SDS_P2;PMS_P1;PMS_P2;Temp;Humidity;BMP_temperature;BMP_pressure;BME280_temperature;BME280_humidity;BME280_pressure;Samples;Min_cycle;Max_cycle;Signal;HPM_P1;HPM_P2
2022/08/02 00:03:38;;;;;;;5.00;3.60;;;;;;;;;;10389430;28;20327;-74
2022/08/02 00:08:39;;;;;;;4.50;3.67;;;;;;;;;;10398305;28;20235;-74
2022/08/02 00:13:40;;;;;;;3.67;3.37;;;;;;;;;;10396479;28;20528;-76
2022/08/02 00:18:41;;;;;;;3.57;3.27;;;;;;;;;;10399823;28;20230;-75
2022/08/02 00:23:42;;;;;;;4.03;3.63;;;;;;;;;;10395261;28;20263;-75
2022/08/02 00:28:43;;;;;;;4.33;3.40;;;;;;;;;;10398878;28;20231;-74
2022/08/02 00:33:44;;;;;;;4.10;3.70;;;;;;;;;;10400970;28;20216;-74
2022/08/02 00:38:47;;;;;;;8.27;3.97;;;;;;;;;;10407054;28;20844;-76
2022/08/02 00:43:49;;;;;;;3.43;3.23;;;;;;;;;;10393277;28;20228;-74
2022/08/02 00:48:50;;;;;;;4.83;3.20;;;;;;;;;;10401996;28;20698;-74
2022/08/02 00:53:50;;;;;;;3.90;3.60;;;;;;;;;;10400201;28;20250;-73
2022/08/02 00:58:52;;;;;;;7.13;4.17;;;;;;;;;;10400167;28;20319;-73
2022/08/02 01:03:52;;;;;;;3.93;3.50;;;;;;;;;;10399620;28;20227;-74
2022/08/02 01:08:56;;;;;;;3.87;3.53;;;;;;;;;;10392503;28;20232;-74
2022/08/02 01:14:03;;;;;;;3.60;3.30;;;;;;;;;;10390670;28;20224;-73
2022/08/02 01:19:20;;;;;;;4.20;3.80;;;;;;;;;;10398768;28;20258;-71
2022/08/02 01:24:37;;;;;;;3.73;3.43;;;;;;;;;;10398022;28;20683;-73
2022/08/02 01:29:41;;;;;;;4.20;3.80;;;;;;;;;;10393258;28;20231;-73
2022/08/02 01:34:46;;;;;;;4.57;2.93;;;;;;;;;;10401018;28;20219;-73
2022/08/02 01:40:13;;;;;;;3.30;3.00;;;;;;;;;;10390815;28;20428;-75
2022/08/02 01:45:15;;;;;;;3.33;3.03;;;;;;;;;;10390680;28;20225;-75
2022/08/02 01:50:17;;;;;;;4.03;2.73;;;;;;;;;;10405466;28;20208;-73
2022/08/02 01:55:21;;;;;;;2.73;2.53;;;;;;;;;;10395296;28;20221;-73
2022/08/02 02:00:24;;;;;;;7.53;3.23;;;;;;;;;;10393067;28;20561;-72
2022/08/02 02:05:27;;;;;;;3.60;3.17;;;;;;;;;;10396610;28;20220;-74
2022/08/02 02:10:30;;;;;;;6.50;3.37;;;;;;;;;;10393179;28;20233;-76
2022/08/02 02:15:35;;;;;;;5.63;3.43;;;;;;;;;;10394239;28;20227;-75
2022/08/02 02:20:36;;;;;;;3.33;3.00;;;;;;;;;;10391363;28;20636;-74
2022/08/02 02:25:41;;;;;;;4.00;3.27;;;;;;;;;;10393963;28;20228;-75
2022/08/02 02:30:45;;;;;;;3.67;3.30;;;;;;;;;;10397054;28;20231;-72
2022/08/02 02:35:49;;;;;;;4.73;3.27;;;;;;;;;;10388758;28;20278;-71
2022/08/02 02:40:51;;;;;;;5.10;3.40;;;;;;;;;;10394243;28;20650;-72
2022/08/02 02:45:52;;;;;;;4.17;3.60;;;;;;;;;;10390942;28;20217;-75
2022/08/02 02:50:53;;;;;;;6.97;3.70;;;;;;;;;;10384236;28;20227;-74
2022/08/02 02:55:55;;;;;;;4.17;3.77;;;;;;;;;;10386487;28;20220;-71
2022/08/02 03:06:15;;;;;;;4.03;3.40;;;;;;;;;;10387410;28;20228;-72
2022/08/02 03:11:17;;;;;;;3.80;3.50;;;;;;;;;;10388479;28;20232;-73
2022/08/02 03:16:18;;;;;;;3.57;3.27;;;;;;;;;;10391030;28;20232;-73
2022/08/02 03:21:18;;;;;;;3.80;3.53;;;;;;;;;;10394486;28;20687;-73
2022/08/02 03:26:20;;;;;;;5.40;3.90;;;;;;;;;;10401994;28;20679;-73
2022/08/02 03:31:21;;;;;;;6.20;4.90;;;;;;;;;;10389720;28;20309;-73
2022/08/02 03:36:25;;;;;;;4.53;4.10;;;;;;;;;;10384151;28;20693;-71
2022/08/02 03:41:27;;;;;;;4.53;4.17;;;;;;;;;;10392939;28;20231;-74
2022/08/02 03:46:28;;;;;;;4.03;3.63;;;;;;;;;;10390733;28;20218;-73
2022/08/02 03:51:29;;;;;;;3.83;3.50;;;;;;;;;;10399157;28;20233;-73
2022/08/02 03:56:31;;;;;;;4.47;4.07;;;;;;;;;;10395966;28;20219;-70
2022/08/02 04:01:32;;;;;;;5.83;4.20;;;;;;;;;;10385180;28;20701;-72
2022/08/02 04:06:33;;;;;;;4.30;3.90;;;;;;;;;;10398853;28;20227;-74
2022/08/02 04:11:34;;;;;;;5.00;3.80;;;;;;;;;;10387250;28;20675;-74
2022/08/02 04:16:57;;;;;;;5.50;3.70;;;;;;;;;;10389322;28;20238;-73
2022/08/02 04:22:03;;;;;;;4.27;3.87;;;;;;;;;;10384981;28;20253;-73
2022/08/02 04:27:04;;;;;;;4.07;3.73;;;;;;;;;;10394507;28;20246;-72
2022/08/02 04:32:06;;;;;;;4.37;3.67;;;;;;;;;;10393690;28;20317;-73
2022/08/02 04:37:07;;;;;;;3.67;3.37;;;;;;;;;;10392053;28;20219;-74
2022/08/02 04:42:08;;;;;;;5.50;3.77;;;;;;;;;;10389878;28;20634;-73
2022/08/02 04:47:09;;;;;;;5.00;3.53;;;;;;;;;;10392675;28;20682;-73
2022/08/02 04:52:10;;;;;;;6.67;3.50;;;;;;;;;;10395237;28;20254;-74
2022/08/02 05:02:30;;;;;;;6.60;3.80;;;;;;;;;;10400509;28;20246;-73
2022/08/02 05:07:31;;;;;;;4.70;3.73;;;;;;;;;;10392758;28;20259;-74
2022/08/02 05:12:32;;;;;;;3.97;3.53;;;;;;;;;;10394506;28;20303;-74
2022/08/02 05:17:33;;;;;;;3.50;3.00;;;;;;;;;;10394807;28;20304;-73
2022/08/02 05:22:37;;;;;;;4.40;3.23;;;;;;;;;;10396415;28;20220;-75
2022/08/02 05:27:38;;;;;;;4.50;3.13;;;;;;;;;;10393345;28;20233;-74
2022/08/02 05:32:52;;;;;;;3.40;3.10;;;;;;;;;;10398571;28;20244;-74
2022/08/02 05:37:59;;;;;;;4.17;3.77;;;;;;;;;;10398269;28;20217;-74
2022/08/02 05:43:03;;;;;;;4.37;3.20;;;;;;;;;;10389527;28;20278;-74
2022/08/02 05:48:04;;;;;;;5.73;3.73;;;;;;;;;;10395299;28;20236;-74
2022/08/02 05:53:12;;;;;;;5.43;4.03;;;;;;;;;;10391602;28;20313;-74
2022/08/02 05:58:17;;;;;;;3.87;3.23;;;;;;;;;;10399059;28;20217;-75
2022/08/02 06:03:25;;;;;;;4.77;2.90;;;;;;;;;;10394032;28;20263;-74
2022/08/02 06:08:32;;;;;;;2.40;2.20;;;;;;;;;;10398599;28;20371;-73
2022/08/02 06:13:33;;;;;;;5.30;2.47;;;;;;;;;;10402014;28;20211;-72
2022/08/02 06:18:34;;;;;;;2.77;2.47;;;;;;;;;;10397297;28;20740;-74
2022/08/02 06:23:42;;;;;;;4.57;2.00;;;;;;;;;;10400101;28;20307;-72
2022/08/02 06:28:44;;;;;;;3.93;1.90;;;;;;;;;;10390577;28;20235;-73
2022/08/02 06:33:45;;;;;;;2.07;1.97;;;;;;;;;;10393717;28;20234;-73
2022/08/02 06:38:55;;;;;;;1.93;1.73;;;;;;;;;;10389800;28;20700;-73
2022/08/02 06:44:03;;;;;;;4.20;1.80;;;;;;;;;;10403621;28;20221;-74
2022/08/02 06:49:07;;;;;;;2.93;1.50;;;;;;;;;;10394622;28;20276;-74
2022/08/02 06:54:08;;;;;;;2.00;1.80;;;;;;;;;;10394776;28;20228;-73
2022/08/02 06:59:12;;;;;;;2.57;1.90;;;;;;;;;;10387437;28;20229;-72
2022/08/02 07:04:13;;;;;;;2.37;1.80;;;;;;;;;;10392972;28;20229;-73
2022/08/02 07:09:14;;;;;;;2.47;2.20;;;;;;;;;;10387793;28;20228;-74
2022/08/02 07:14:15;;;;;;;5.80;2.20;;;;;;;;;;10391320;28;20640;-72
2022/08/02 07:19:16;;;;;;;2.97;1.63;;;;;;;;;;10388673;28;20224;-73
2022/08/02 07:24:17;;;;;;;4.10;1.93;;;;;;;;;;10390772;28;20224;-74
2022/08/02 07:29:18;;;;;;;3.83;2.07;;;;;;;;;;10387589;28;20228;-72
2022/08/02 07:34:28;;;;;;;1.67;1.50;;;;;;;;;;10390475;28;20603;-72
2022/08/02 07:39:29;;;;;;;2.73;1.50;;;;;;;;;;10393449;28;20216;-74
2022/08/02 07:44:33;;;;;;;1.73;1.40;;;;;;;;;;10376933;28;20596;-74
2022/08/02 07:49:34;;;;;;;3.27;1.47;;;;;;;;;;10389054;28;20232;-73
2022/08/02 07:54:35;;;;;;;3.10;1.70;;;;;;;;;;10390365;28;20226;-74
2022/08/02 07:59:36;;;;;;;1.83;1.50;;;;;;;;;;10393741;28;20254;-73
2022/08/02 08:04:37;;;;;;;2.43;1.90;;;;;;;;;;10395815;28;20290;-74
2022/08/02 08:09:46;;;;;;;1.53;1.27;;;;;;;;;;10387431;28;20233;-74
2022/08/02 08:14:53;;;;;;;2.70;1.43;;;;;;;;;;10393309;28;20213;-74
2022/08/02 08:19:54;;;;;;;2.77;1.73;;;;;;;;;;10392923;28;20275;-74
2022/08/02 08:24:55;;;;;;;2.00;1.67;;;;;;;;;;10387831;28;20570;-73
2022/08/02 08:29:56;;;;;;;1.77;1.23;;;;;;;;;;10407348;28;20224;-73
2022/08/02 08:35:02;;;;;;;1.77;1.40;;;;;;;;;;10393051;28;20224;-73
2022/08/02 08:40:07;;;;;;;1.23;1.10;;;;;;;;;;10400579;28;20220;-75
2022/08/02 08:45:08;;;;;;;2.87;1.07;;;;;;;;;;10399709;28;20232;-74
2022/08/02 08:50:16;;;;;;;1.50;1.40;;;;;;;;;;10398344;28;20215;-73
2022/08/02 08:55:18;;;;;;;5.20;1.70;;;;;;;;;;10400165;28;20183;-73
2022/08/02 09:00:22;;;;;;;2.33;1.50;;;;;;;;;;10394305;28;20185;-73
2022/08/02 09:05:24;;;;;;;3.13;1.60;;;;;;;;;;10396377;28;20185;-73
2022/08/02 09:10:40;;;;;;;1.37;1.20;;;;;;;;;;10394697;28;20236;-73
2022/08/02 09:15:41;;;;;;;2.65;1.30;;;;;;;;;;10393620;28;20220;-73
2022/08/02 09:20:58;;;;;;;2.63;1.10;;;;;;;;;;10397086;28;20255;-73
2022/08/02 09:26:00;;;;;;;1.48;1.10;;;;;;;;;;10391512;28;20220;-73
2022/08/02 09:31:05;;;;;;;3.05;1.15;;;;;;;;;;10398943;28;20280;-73
2022/08/02 09:36:11;;;;;;;1.65;1.10;;;;;;;;;;10390979;28;20249;-72
2022/08/02 09:41:22;;;;;;;1.30;1.20;;;;;;;;;;10396306;28;20225;-73
2022/08/02 09:46:26;;;;;;;1.92;1.38;;;;;;;;;;10401363;28;20247;-73
2022/08/02 09:51:29;;;;;;;1.85;1.40;;;;;;;;;;10393515;28;20772;-73
2022/08/02 09:56:39;;;;;;;2.08;1.13;;;;;;;;;;10404237;28;20228;-73
2022/08/02 10:01:40;;;;;;;1.30;1.20;;;;;;;;;;10392438;28;20369;-72
2022/08/02 10:06:45;;;;;;;1.30;1.30;;;;;;;;;;10395027;28;20228;-73
2022/08/02 10:11:50;;;;;;;2.90;1.60;;;;;;;;;;10390692;28;20708;-73
2022/08/02 10:16:53;;;;;;;1.42;1.30;;;;;;;;;;10396137;28;20213;-74
2022/08/02 10:22:01;;;;;;;3.45;1.67;;;;;;;;;;10396464;28;20307;-73
2022/08/02 10:27:03;;;;;;;1.50;1.40;;;;;;;;;;10389250;28;20226;-73
2022/08/02 10:32:06;;;;;;;1.17;1.00;;;;;;;;;;10396035;28;20216;-73
2022/08/02 10:37:08;;;;;;;1.60;1.40;;;;;;;;;;10396718;28;20718;-75
2022/08/02 10:42:09;;;;;;;3.13;1.20;;;;;;;;;;10402124;28;20235;-74
2022/08/02 10:47:13;;;;;;;1.30;1.30;;;;;;;;;;10395720;28;20757;-73
2022/08/02 10:52:14;;;;;;;1.27;0.90;;;;;;;;;;10388980;28;20225;-74
2022/08/02 10:57:23;;;;;;;1.17;1.10;;;;;;;;;;10393614;28;20221;-74
2022/08/02 11:02:43;;;;;;;2.97;1.13;;;;;;;;;;10391033;28;20219;-73
2022/08/02 11:07:44;;;;;;;2.50;1.00;;;;;;;;;;10388211;28;20795;-74
2022/08/02 11:13:14;;;;;;;3.10;1.30;;;;;;;;;;10392432;28;20303;-74
2022/08/02 11:18:18;;;;;;;1.30;1.20;;;;;;;;;;10370182;28;20248;-73
2022/08/02 11:23:38;;;;;;;2.03;1.55;;;;;;;;;;10392338;28;20225;-74
2022/08/02 11:28:39;;;;;;;1.20;1.10;;;;;;;;;;10391459;28;20236;-74
2022/08/02 11:33:42;;;;;;;1.30;1.20;;;;;;;;;;10388976;28;20229;-74
2022/08/02 11:38:43;;;;;;;1.00;1.00;;;;;;;;;;10391457;28;20224;-73
2022/08/02 11:43:48;;;;;;;0.80;0.80;;;;;;;;;;10393189;28;20220;-72
2022/08/02 11:48:49;;;;;;;1.63;1.53;;;;;;;;;;10389521;28;20221;-72
2022/08/02 11:53:51;;;;;;;1.07;0.90;;;;;;;;;;10383771;28;20212;-72
2022/08/02 11:59:04;;;;;;;2.47;0.90;;;;;;;;;;10397420;28;20731;-72
2022/08/02 12:04:06;;;;;;;4.20;1.33;;;;;;;;;;10395455;28;20669;-72
2022/08/02 12:09:08;;;;;;;1.67;1.57;;;;;;;;;;10401256;28;20698;-72
2022/08/02 12:14:09;;;;;;;3.20;1.33;;;;;;;;;;10399973;28;20227;-72
2022/08/02 12:19:22;;;;;;;2.00;1.30;;;;;;;;;;10400737;28;20239;-73
2022/08/02 12:24:27;;;;;;;1.40;1.30;;;;;;;;;;10405307;28;20278;-72
2022/08/02 12:29:30;;;;;;;1.00;1.00;;;;;;;;;;10399802;28;20311;-74
2022/08/02 12:34:32;;;;;;;1.03;1.03;;;;;;;;;;10396218;28;20698;-72
2022/08/02 12:39:48;;;;;;;2.63;1.30;;;;;;;;;;10402455;28;20316;-72
2022/08/02 12:45:00;;;;;;;1.17;1.03;;;;;;;;;;10401561;28;20244;-72
2022/08/02 12:50:19;;;;;;;2.70;1.20;;;;;;;;;;10392791;28;20252;-73
2022/08/02 12:55:22;;;;;;;2.03;1.30;;;;;;;;;;10396571;28;20312;-73
2022/08/02 13:00:27;;;;;;;1.00;1.00;;;;;;;;;;10391075;28;20264;-74
2022/08/02 13:05:29;;;;;;;1.63;1.13;;;;;;;;;;10395783;28;20300;-73
2022/08/02 13:10:30;;;;;;;3.33;1.07;;;;;;;;;;10399387;28;20648;-73
2022/08/02 13:15:31;;;;;;;1.13;1.07;;;;;;;;;;10395724;28;20217;-73
2022/08/02 13:20:32;;;;;;;2.33;1.20;;;;;;;;;;10395104;28;20224;-72
2022/08/02 13:25:33;;;;;;;1.93;1.40;;;;;;;;;;10395012;28;20221;-73
2022/08/02 13:30:34;;;;;;;1.10;1.10;;;;;;;;;;10394277;28;20282;-73
2022/08/02 13:35:35;;;;;;;1.03;0.83;;;;;;;;;;10393879;28;20237;-73
2022/08/02 13:45:56;;;;;;;1.37;1.27;;;;;;;;;;10398434;28;20219;-72
2022/08/02 13:51:10;;;;;;;2.93;1.20;;;;;;;;;;10405695;28;20224;-73
2022/08/02 13:56:14;;;;;;;1.40;1.23;;;;;;;;;;10389835;28;20244;-72
2022/08/02 14:01:15;;;;;;;1.03;0.93;;;;;;;;;;10400011;28;20220;-72
2022/08/02 14:06:16;;;;;;;0.90;0.90;;;;;;;;;;10394881;28;20307;-72
2022/08/02 14:11:17;;;;;;;4.87;1.20;;;;;;;;;;10397408;28;20716;-74
2022/08/02 14:16:18;;;;;;;1.63;1.10;;;;;;;;;;10391488;28;20220;-74
2022/08/02 14:21:19;;;;;;;1.37;1.03;;;;;;;;;;10398736;28;20274;-73
2022/08/02 14:26:20;;;;;;;2.07;1.30;;;;;;;;;;10393421;28;20228;-73
2022/08/02 14:31:21;;;;;;;3.77;1.07;;;;;;;;;;10391599;28;20263;-73
2022/08/02 14:36:22;;;;;;;1.20;1.10;;;;;;;;;;10392915;28;20217;-74
2022/08/02 14:41:23;;;;;;;1.80;1.20;;;;;;;;;;10390417;28;20240;-75
2022/08/02 14:46:30;;;;;;;2.43;1.20;;;;;;;;;;10401482;28;20217;-72
2022/08/02 14:51:31;;;;;;;3.07;1.20;;;;;;;;;;10382370;28;20270;-73
2022/08/02 14:56:32;;;;;;;1.40;1.30;;;;;;;;;;10387990;28;20577;-72
2022/08/02 15:01:33;;;;;;;1.30;1.17;;;;;;;;;;10389307;28;20217;-72
2022/08/02 15:06:34;;;;;;;1.73;1.13;;;;;;;;;;10390750;28;20216;-74
2022/08/02 15:11:37;;;;;;;1.83;1.10;;;;;;;;;;10388145;28;20228;-74
2022/08/02 15:16:39;;;;;;;1.67;1.10;;;;;;;;;;10392243;28;20264;-73
2022/08/02 15:21:40;;;;;;;1.63;1.40;;;;;;;;;;10389679;28;20684;-73
2022/08/02 15:26:41;;;;;;;2.13;1.30;;;;;;;;;;10391956;28;20231;-73
2022/08/02 15:31:42;;;;;;;1.20;1.10;;;;;;;;;;10388858;28;20250;-73
2022/08/02 15:36:49;;;;;;;1.90;1.30;;;;;;;;;;10391065;28;20687;-73
2022/08/02 15:41:50;;;;;;;2.70;1.53;;;;;;;;;;10386071;28;20239;-73
2022/08/02 15:46:52;;;;;;;4.13;1.30;;;;;;;;;;10398579;28;20246;-73
2022/08/02 15:51:54;;;;;;;1.70;1.23;;;;;;;;;;10393216;28;20225;-73
2022/08/02 15:57:00;;;;;;;1.73;1.43;;;;;;;;;;10383355;28;20695;-73
2022/08/02 16:02:05;;;;;;;1.67;1.00;;;;;;;;;;10388082;28;20308;-72
2022/08/02 16:07:06;;;;;;;2.30;1.20;;;;;;;;;;10393447;28;20213;-72
2022/08/02 16:12:13;;;;;;;1.30;1.20;;;;;;;;;;10391674;28;20232;-72
2022/08/02 16:17:16;;;;;;;2.60;1.23;;;;;;;;;;10392256;28;20236;-72
2022/08/02 16:22:18;;;;;;;3.27;1.20;;;;;;;;;;10392254;28;20684;-72
2022/08/02 16:27:19;;;;;;;1.87;1.30;;;;;;;;;;10392357;28;20309;-73
2022/08/02 16:32:20;;;;;;;3.97;1.10;;;;;;;;;;10394544;28;20931;-72
2022/08/02 16:37:21;;;;;;;1.87;1.10;;;;;;;;;;10408925;28;20224;-73
2022/08/02 16:42:22;;;;;;;1.70;1.20;;;;;;;;;;10378935;28;20228;-73
2022/08/02 16:47:23;;;;;;;3.20;1.70;;;;;;;;;;10395132;28;20212;-73
2022/08/02 16:52:24;;;;;;;1.97;1.10;;;;;;;;;;10381584;28;20251;-73
2022/08/02 16:57:25;;;;;;;1.23;1.13;;;;;;;;;;10404519;28;20779;-73
2022/08/02 17:02:26;;;;;;;1.63;1.00;;;;;;;;;;10401229;28;20254;-74
2022/08/02 17:07:27;;;;;;;1.50;1.40;;;;;;;;;;10403619;28;20636;-73
2022/08/02 17:12:28;;;;;;;1.63;1.40;;;;;;;;;;10399272;28;20332;-72
2022/08/02 17:17:32;;;;;;;3.33;3.07;;;;;;;;;;10409643;28;20228;-73
2022/08/02 17:22:33;;;;;;;1.80;1.63;;;;;;;;;;10404206;28;20228;-73
2022/08/02 17:27:34;;;;;;;1.70;1.10;;;;;;;;;;10399065;28;20236;-73
2022/08/02 17:32:35;;;;;;;1.97;1.03;;;;;;;;;;10396257;28;20216;-74
2022/08/02 17:37:37;;;;;;;2.27;1.10;;;;;;;;;;10394619;28;20300;-73
2022/08/02 17:42:40;;;;;;;1.30;1.20;;;;;;;;;;10400664;28;20248;-75
2022/08/02 17:47:41;;;;;;;2.50;1.50;;;;;;;;;;10404952;28;20217;-74
2022/08/02 17:52:42;;;;;;;1.40;1.30;;;;;;;;;;10400827;28;20216;-73
2022/08/02 17:57:43;;;;;;;1.30;1.20;;;;;;;;;;10401362;28;20304;-72
2022/08/02 18:02:44;;;;;;;1.77;1.30;;;;;;;;;;10398526;28;20220;-74
2022/08/02 18:07:46;;;;;;;2.30;1.27;;;;;;;;;;10399420;28;20222;-74
2022/08/02 18:12:47;;;;;;;1.20;1.10;;;;;;;;;;10400907;28;20223;-74
2022/08/02 18:17:51;;;;;;;1.30;1.20;;;;;;;;;;10400772;28;20225;-74
2022/08/02 18:22:52;;;;;;;1.50;1.33;;;;;;;;;;10396746;28;20256;-72
2022/08/02 18:27:54;;;;;;;2.87;1.67;;;;;;;;;;10389361;28;20733;-73
2022/08/02 18:32:55;;;;;;;3.03;1.73;;;;;;;;;;10396376;28;20262;-72
2022/08/02 18:37:56;;;;;;;2.63;2.23;;;;;;;;;;10391190;28;20267;-73
2022/08/02 18:42:57;;;;;;;4.80;2.10;;;;;;;;;;10387473;28;20318;-74
2022/08/02 18:47:59;;;;;;;5.70;2.07;;;;;;;;;;10399997;28;20777;-73
2022/08/02 18:52:59;;;;;;;5.70;2.20;;;;;;;;;;10402925;28;20311;-73
2022/08/02 18:58:01;;;;;;;4.20;2.00;;;;;;;;;;10391293;28;20236;-74
2022/08/02 19:03:02;;;;;;;8.03;2.33;;;;;;;;;;10389476;28;20228;-74
2022/08/02 19:08:04;;;;;;;5.37;2.50;;;;;;;;;;10383676;28;20259;-74
2022/08/02 19:13:05;;;;;;;2.57;2.20;;;;;;;;;;10392541;28;20305;-73
2022/08/02 19:18:06;;;;;;;3.80;2.50;;;;;;;;;;10389947;28;20254;-73
2022/08/02 19:23:09;;;;;;;5.63;2.87;;;;;;;;;;10397861;28;20315;-74
2022/08/02 19:28:13;;;;;;;3.47;2.70;;;;;;;;;;10392250;28;20310;-73
2022/08/02 19:33:14;;;;;;;2.83;2.37;;;;;;;;;;10392177;28;20255;-75
2022/08/02 19:38:15;;;;;;;3.77;2.17;;;;;;;;;;10395555;28;20240;-73
2022/08/02 19:43:16;;;;;;;6.03;3.37;;;;;;;;;;10399315;28;20247;-72
2022/08/02 19:48:18;;;;;;;10.70;5.60;;;;;;;;;;10392798;28;20622;-72
2022/08/02 19:53:19;;;;;;;7.27;5.40;;;;;;;;;;10401271;28;20229;-74
2022/08/02 19:58:20;;;;;;;5.83;4.83;;;;;;;;;;10387547;28;20691;-75
2022/08/02 20:03:21;;;;;;;3.77;3.37;;;;;;;;;;10396225;28;20225;-74
2022/08/02 20:08:22;;;;;;;7.13;4.90;;;;;;;;;;10394440;28;20635;-72
2022/08/02 20:13:26;;;;;;;5.40;4.87;;;;;;;;;;10396101;28;20273;-72
2022/08/02 20:18:28;;;;;;;6.03;4.97;;;;;;;;;;10397817;28;20235;-73
2022/08/02 20:23:32;;;;;;;6.63;4.27;;;;;;;;;;10404158;28;20653;-72
2022/08/02 20:28:33;;;;;;;4.23;3.10;;;;;;;;;;10404802;28;20252;-74
2022/08/02 20:33:34;;;;;;;5.63;4.30;;;;;;;;;;10406378;28;20216;-74
2022/08/02 20:38:37;;;;;;;6.53;4.90;;;;;;;;;;10406794;28;20485;-72
2022/08/02 20:43:38;;;;;;;4.10;3.07;;;;;;;;;;10391029;28;20247;-74
2022/08/02 20:48:39;;;;;;;5.17;3.80;;;;;;;;;;10406333;28;20282;-73
2022/08/02 20:53:40;;;;;;;6.83;4.90;;;;;;;;;;10405689;28;20275;-73
2022/08/02 20:58:41;;;;;;;5.47;4.20;;;;;;;;;;10407436;28;20474;-71
2022/08/02 21:03:45;;;;;;;4.77;3.80;;;;;;;;;;10403641;28;20259;-70
2022/08/02 21:08:49;;;;;;;4.30;3.90;;;;;;;;;;10390935;28;20284;-71
2022/08/02 21:13:50;;;;;;;5.50;4.30;;;;;;;;;;10402262;28;20637;-73
2022/08/02 21:18:54;;;;;;;7.17;4.60;;;;;;;;;;10387451;28;20277;-73
2022/08/02 21:23:55;;;;;;;8.23;4.30;;;;;;;;;;10406356;28;20228;-74
2022/08/02 21:28:56;;;;;;;5.73;4.20;;;;;;;;;;10406862;28;20216;-74
2022/08/02 21:33:57;;;;;;;5.47;3.80;;;;;;;;;;10406108;28;20726;-74
2022/08/02 21:38:59;;;;;;;5.77;4.23;;;;;;;;;;10402952;28;20236;-72
2022/08/02 21:44:00;;;;;;;5.13;3.63;;;;;;;;;;10402914;28;20224;-74
2022/08/02 21:49:01;;;;;;;3.43;3.13;;;;;;;;;;10401915;28;20730;-75
2022/08/02 21:54:02;;;;;;;4.23;3.83;;;;;;;;;;10409944;28;20357;-70
2022/08/02 21:59:03;;;;;;;4.70;3.80;;;;;;;;;;10398319;28;20363;-70
2022/08/02 22:04:04;;;;;;;5.40;3.47;;;;;;;;;;10402850;28;20311;-70
2022/08/02 22:09:05;;;;;;;6.93;3.90;;;;;;;;;;10405034;28;20232;-70
2022/08/02 22:14:06;;;;;;;4.17;3.77;;;;;;;;;;10401916;28;20217;-71
2022/08/02 22:19:07;;;;;;;5.77;3.97;;;;;;;;;;10404482;28;20220;-71
2022/08/02 22:24:08;;;;;;;4.40;4.00;;;;;;;;;;10400978;28;20224;-70
2022/08/02 22:29:09;;;;;;;6.07;4.53;;;;;;;;;;10399968;28;20227;-72
2022/08/02 22:34:11;;;;;;;6.80;4.57;;;;;;;;;;10408757;28;20299;-71
2022/08/02 22:39:13;;;;;;;7.13;4.30;;;;;;;;;;10402795;28;20604;-73
2022/08/02 22:44:14;;;;;;;5.60;4.50;;;;;;;;;;10407003;28;20217;-72
2022/08/02 22:49:15;;;;;;;8.03;4.20;;;;;;;;;;10412266;28;20750;-73
2022/08/02 22:54:16;;;;;;;4.83;4.00;;;;;;;;;;10403951;28;20252;-73
2022/08/02 22:59:17;;;;;;;4.23;3.63;;;;;;;;;;10400073;28;20225;-72
2022/08/02 23:04:18;;;;;;;5.40;3.93;;;;;;;;;;10412349;28;20216;-72
2022/08/02 23:09:19;;;;;;;5.50;3.80;;;;;;;;;;10403414;28;20688;-73
2022/08/02 23:14:20;;;;;;;6.80;4.10;;;;;;;;;;10402458;28;20253;-71
2022/08/02 23:24:41;;;;;;;4.50;4.00;;;;;;;;;;10404568;28;20683;-73
2022/08/02 23:29:42;;;;;;;6.03;3.77;;;;;;;;;;10401891;28;20236;-73
2022/08/02 23:34:46;;;;;;;5.00;4.03;;;;;;;;;;10393334;28;20683;-73
2022/08/02 23:39:47;;;;;;;6.70;4.03;;;;;;;;;;10401694;28;20323;-73
2022/08/02 23:44:48;;;;;;;4.47;3.80;;;;;;;;;;10399800;28;20297;-73
2022/08/02 23:49:49;;;;;;;6.63;4.33;;;;;;;;;;10406736;28;20272;-72
2022/08/02 23:54:50;;;;;;;4.27;3.50;;;;;;;;;;10401756;28;20311;-72
2022/08/02 23:59:54;;;;;;;5.20;3.67;;;;;;;;;;10391760;28;20240;-73
